Homestead National Monument, Nebraska
Current Conditions -  °F | °C
As of 12:15 AM on Wednesday 26 Nov 2014 (Local Time) from KBIE Reporting Station
Drizzle Drizzle  
Wind Chill: 34°   Ceiling: 2700
Heat Index: 40°   Visibility: 10mi
Dew Point: 34°   Wind: 10mph
Humidity: 80%   Direction: 260°W
Pressure: 29.88"   Gusts: 17mph
Location:  40.2674°N, 96.7699°W
Report Text: KBIE 260615Z AUTO 26009G15KT 10SM -DZ SCT020 BKN027 OVC037 05/01 A2988 RMK AO2 T00450013
Loading
Personal Weather Stations






























Interactive Weather Map New forecast layout! Learn more

10-Day Weather Forecast

Advertisements
Track Severe Weather on mobile